sensor_id;sensor_type;location;lat;lon;timestamp;P1;durP1;ratioP1;P2;durP2;ratioP2
39846;SDS011;25517;52.422;10.782;2023-07-13T00:00:34;11.90;;;5.00;;
39846;SDS011;25517;52.422;10.782;2023-07-13T00:03:01;7.40;;;4.72;;
39846;SDS011;25517;52.422;10.782;2023-07-13T00:05:26;10.55;;;4.53;;
39846;SDS011;25517;52.422;10.782;2023-07-13T00:07:52;7.30;;;4.25;;
39846;SDS011;25517;52.422;10.782;2023-07-13T00:10:19;10.40;;;4.60;;
39846;SDS011;25517;52.422;10.782;2023-07-13T00:12:45;4.63;;;3.83;;
39846;SDS011;25517;52.422;10.782;2023-07-13T00:15:14;8.25;;;4.88;;
39846;SDS011;25517;52.422;10.782;2023-07-13T00:17:47;13.45;;;4.60;;
39846;SDS011;25517;52.422;10.782;2023-07-13T00:20:13;6.25;;;4.00;;
39846;SDS011;25517;52.422;10.782;2023-07-13T00:22:39;10.23;;;5.00;;
39846;SDS011;25517;52.422;10.782;2023-07-13T00:25:04;10.52;;;4.75;;
39846;SDS011;25517;52.422;10.782;2023-07-13T00:27:30;6.20;;;4.22;;
39846;SDS011;25517;52.422;10.782;2023-07-13T00:29:57;8.15;;;4.28;;
39846;SDS011;25517;52.422;10.782;2023-07-13T00:32:23;8.75;;;4.53;;
39846;SDS011;25517;52.422;10.782;2023-07-13T00:34:50;10.50;;;4.40;;
39846;SDS011;25517;52.422;10.782;2023-07-13T00:37:16;6.68;;;4.13;;
39846;SDS011;25517;52.422;10.782;2023-07-13T00:39:42;8.80;;;4.35;;
39846;SDS011;25517;52.422;10.782;2023-07-13T00:42:07;7.55;;;3.97;;
39846;SDS011;25517;52.422;10.782;2023-07-13T00:44:33;5.05;;;3.60;;
39846;SDS011;25517;52.422;10.782;2023-07-13T00:46:59;6.35;;;4.15;;
39846;SDS011;25517;52.422;10.782;2023-07-13T00:49:25;6.63;;;3.65;;
39846;SDS011;25517;52.422;10.782;2023-07-13T00:51:57;6.97;;;3.47;;
39846;SDS011;25517;52.422;10.782;2023-07-13T00:54:28;4.28;;;3.35;;
39846;SDS011;25517;52.422;10.782;2023-07-13T00:56:58;5.28;;;3.90;;
39846;SDS011;25517;52.422;10.782;2023-07-13T00:59:26;7.43;;;4.05;;
39846;SDS011;25517;52.422;10.782;2023-07-13T01:01:53;5.05;;;3.55;;
39846;SDS011;25517;52.422;10.782;2023-07-13T01:04:19;4.53;;;3.70;;
39846;SDS011;25517;52.422;10.782;2023-07-13T01:06:45;4.25;;;3.40;;
39846;SDS011;25517;52.422;10.782;2023-07-13T01:09:11;7.47;;;3.58;;
39846;SDS011;25517;52.422;10.782;2023-07-13T01:11:38;5.10;;;3.88;;
39846;SDS011;25517;52.422;10.782;2023-07-13T01:14:03;5.57;;;3.92;;
39846;SDS011;25517;52.422;10.782;2023-07-13T01:16:31;6.15;;;4.35;;
39846;SDS011;25517;52.422;10.782;2023-07-13T01:18:59;6.60;;;4.15;;
39846;SDS011;25517;52.422;10.782;2023-07-13T01:21:26;7.65;;;4.10;;
39846;SDS011;25517;52.422;10.782;2023-07-13T01:23:53;6.72;;;3.78;;
39846;SDS011;25517;52.422;10.782;2023-07-13T01:26:18;6.20;;;3.83;;
39846;SDS011;25517;52.422;10.782;2023-07-13T01:28:44;5.70;;;4.00;;
39846;SDS011;25517;52.422;10.782;2023-07-13T01:31:10;10.20;;;4.93;;
39846;SDS011;25517;52.422;10.782;2023-07-13T01:33:39;5.18;;;4.32;;
39846;SDS011;25517;52.422;10.782;2023-07-13T01:36:06;7.75;;;4.10;;
39846;SDS011;25517;52.422;10.782;2023-07-13T01:38:33;7.32;;;3.80;;
39846;SDS011;25517;52.422;10.782;2023-07-13T01:40:59;8.38;;;4.60;;
39846;SDS011;25517;52.422;10.782;2023-07-13T01:43:25;10.88;;;4.93;;
39846;SDS011;25517;52.422;10.782;2023-07-13T01:45:50;6.32;;;4.05;;
39846;SDS011;25517;52.422;10.782;2023-07-13T01:48:16;13.35;;;4.72;;
39846;SDS011;25517;52.422;10.782;2023-07-13T01:50:41;8.40;;;4.22;;
39846;SDS011;25517;52.422;10.782;2023-07-13T01:53:07;8.95;;;4.55;;
39846;SDS011;25517;52.422;10.782;2023-07-13T01:55:33;8.00;;;4.30;;
39846;SDS011;25517;52.422;10.782;2023-07-13T01:57:59;6.07;;;4.32;;
39846;SDS011;25517;52.422;10.782;2023-07-13T02:00:25;10.32;;;5.25;;
39846;SDS011;25517;52.422;10.782;2023-07-13T02:02:50;9.25;;;4.70;;
39846;SDS011;25517;52.422;10.782;2023-07-13T02:05:16;8.30;;;4.00;;
39846;SDS011;25517;52.422;10.782;2023-07-13T02:11:03;6.30;;;3.90;;
39846;SDS011;25517;52.422;10.782;2023-07-13T02:13:29;5.72;;;4.00;;
39846;SDS011;25517;52.422;10.782;2023-07-13T02:15:55;6.50;;;4.03;;
39846;SDS011;25517;52.422;10.782;2023-07-13T02:18:20;7.60;;;4.25;;
39846;SDS011;25517;52.422;10.782;2023-07-13T02:20:46;9.13;;;4.22;;
39846;SDS011;25517;52.422;10.782;2023-07-13T02:23:11;7.88;;;3.95;;
39846;SDS011;25517;52.422;10.782;2023-07-13T02:25:37;6.18;;;3.75;;
39846;SDS011;25517;52.422;10.782;2023-07-13T02:28:03;5.93;;;3.85;;
39846;SDS011;25517;52.422;10.782;2023-07-13T02:30:28;7.60;;;4.60;;
39846;SDS011;25517;52.422;10.782;2023-07-13T02:32:55;9.80;;;4.55;;
39846;SDS011;25517;52.422;10.782;2023-07-13T02:35:21;11.48;;;4.15;;
39846;SDS011;25517;52.422;10.782;2023-07-13T02:37:46;8.65;;;4.20;;
39846;SDS011;25517;52.422;10.782;2023-07-13T02:40:12;7.85;;;4.10;;
39846;SDS011;25517;52.422;10.782;2023-07-13T02:42:38;6.93;;;3.83;;
39846;SDS011;25517;52.422;10.782;2023-07-13T02:45:04;9.68;;;4.13;;
39846;SDS011;25517;52.422;10.782;2023-07-13T02:47:31;3.97;;;3.33;;
39846;SDS011;25517;52.422;10.782;2023-07-13T02:49:57;6.93;;;3.97;;
39846;SDS011;25517;52.422;10.782;2023-07-13T02:52:23;6.78;;;4.28;;
39846;SDS011;25517;52.422;10.782;2023-07-13T02:54:48;5.35;;;4.15;;
39846;SDS011;25517;52.422;10.782;2023-07-13T02:57:14;7.00;;;4.32;;
39846;SDS011;25517;52.422;10.782;2023-07-13T02:59:39;8.15;;;4.20;;
39846;SDS011;25517;52.422;10.782;2023-07-13T03:02:04;6.97;;;4.50;;
39846;SDS011;25517;52.422;10.782;2023-07-13T03:04:30;7.18;;;4.20;;
39846;SDS011;25517;52.422;10.782;2023-07-13T03:06:56;9.00;;;4.35;;
39846;SDS011;25517;52.422;10.782;2023-07-13T03:09:24;7.78;;;4.18;;
39846;SDS011;25517;52.422;10.782;2023-07-13T03:11:53;6.93;;;3.92;;
39846;SDS011;25517;52.422;10.782;2023-07-13T03:14:20;6.40;;;4.32;;
39846;SDS011;25517;52.422;10.782;2023-07-13T03:16:47;8.93;;;3.80;;
39846;SDS011;25517;52.422;10.782;2023-07-13T03:19:12;6.30;;;3.92;;
39846;SDS011;25517;52.422;10.782;2023-07-13T03:21:38;5.55;;;3.80;;
39846;SDS011;25517;52.422;10.782;2023-07-13T03:24:03;6.30;;;3.67;;
39846;SDS011;25517;52.422;10.782;2023-07-13T03:26:29;7.70;;;4.68;;
39846;SDS011;25517;52.422;10.782;2023-07-13T03:28:55;7.65;;;4.32;;
39846;SDS011;25517;52.422;10.782;2023-07-13T03:31:22;7.70;;;3.60;;
39846;SDS011;25517;52.422;10.782;2023-07-13T03:33:50;6.53;;;4.47;;
39846;SDS011;25517;52.422;10.782;2023-07-13T03:36:17;8.35;;;4.55;;
39846;SDS011;25517;52.422;10.782;2023-07-13T03:38:52;10.55;;;5.15;;
39846;SDS011;25517;52.422;10.782;2023-07-13T03:41:18;8.77;;;4.05;;
39846;SDS011;25517;52.422;10.782;2023-07-13T03:43:44;6.68;;;3.78;;
39846;SDS011;25517;52.422;10.782;2023-07-13T03:46:10;7.85;;;4.47;;
39846;SDS011;25517;52.422;10.782;2023-07-13T03:48:36;6.70;;;4.28;;
39846;SDS011;25517;52.422;10.782;2023-07-13T03:51:02;7.85;;;4.15;;
39846;SDS011;25517;52.422;10.782;2023-07-13T03:53:27;7.95;;;4.65;;
39846;SDS011;25517;52.422;10.782;2023-07-13T03:55:53;6.28;;;3.83;;
39846;SDS011;25517;52.422;10.782;2023-07-13T03:58:32;8.30;;;4.97;;
39846;SDS011;25517;52.422;10.782;2023-07-13T04:00:59;6.55;;;4.72;;
39846;SDS011;25517;52.422;10.782;2023-07-13T04:03:26;8.65;;;4.70;;
39846;SDS011;25517;52.422;10.782;2023-07-13T04:05:53;8.68;;;4.55;;
39846;SDS011;25517;52.422;10.782;2023-07-13T04:08:19;7.40;;;4.70;;
39846;SDS011;25517;52.422;10.782;2023-07-13T04:10:44;8.18;;;4.40;;
39846;SDS011;25517;52.422;10.782;2023-07-13T04:13:10;6.65;;;4.03;;
39846;SDS011;25517;52.422;10.782;2023-07-13T04:15:35;8.48;;;4.38;;
39846;SDS011;25517;52.422;10.782;2023-07-13T04:18:01;7.18;;;4.53;;
39846;SDS011;25517;52.422;10.782;2023-07-13T04:20:29;11.65;;;4.47;;
39846;SDS011;25517;52.422;10.782;2023-07-13T04:22:54;6.20;;;4.55;;
39846;SDS011;25517;52.422;10.782;2023-07-13T04:25:20;9.88;;;4.28;;
39846;SDS011;25517;52.422;10.782;2023-07-13T04:27:46;8.68;;;4.43;;
39846;SDS011;25517;52.422;10.782;2023-07-13T04:30:12;10.13;;;4.63;;
39846;SDS011;25517;52.422;10.782;2023-07-13T04:32:37;8.38;;;3.67;;
39846;SDS011;25517;52.422;10.782;2023-07-13T04:35:03;9.50;;;4.57;;
39846;SDS011;25517;52.422;10.782;2023-07-13T04:37:29;7.93;;;4.35;;
39846;SDS011;25517;52.422;10.782;2023-07-13T04:39:55;6.47;;;4.25;;
39846;SDS011;25517;52.422;10.782;2023-07-13T04:42:20;10.05;;;3.55;;
39846;SDS011;25517;52.422;10.782;2023-07-13T04:44:49;7.97;;;4.45;;
39846;SDS011;25517;52.422;10.782;2023-07-13T04:47:15;6.93;;;4.18;;
39846;SDS011;25517;52.422;10.782;2023-07-13T04:49:41;7.45;;;3.80;;
39846;SDS011;25517;52.422;10.782;2023-07-13T04:52:07;4.43;;;3.60;;
39846;SDS011;25517;52.422;10.782;2023-07-13T04:54:35;5.80;;;3.90;;
39846;SDS011;25517;52.422;10.782;2023-07-13T04:57:02;7.43;;;3.88;;
39846;SDS011;25517;52.422;10.782;2023-07-13T04:59:31;5.97;;;4.07;;
39846;SDS011;25517;52.422;10.782;2023-07-13T05:01:57;7.00;;;4.18;;
39846;SDS011;25517;52.422;10.782;2023-07-13T05:04:22;7.95;;;4.00;;
39846;SDS011;25517;52.422;10.782;2023-07-13T05:06:48;9.98;;;4.38;;
39846;SDS011;25517;52.422;10.782;2023-07-13T05:09:13;9.10;;;4.07;;
39846;SDS011;25517;52.422;10.782;2023-07-13T05:11:39;9.98;;;3.97;;
39846;SDS011;25517;52.422;10.782;2023-07-13T05:14:04;7.43;;;4.20;;
39846;SDS011;25517;52.422;10.782;2023-07-13T05:16:30;8.10;;;3.65;;
39846;SDS011;25517;52.422;10.782;2023-07-13T05:18:57;8.98;;;3.63;;
39846;SDS011;25517;52.422;10.782;2023-07-13T05:21:22;5.95;;;3.67;;
39846;SDS011;25517;52.422;10.782;2023-07-13T05:23:48;8.80;;;3.72;;
39846;SDS011;25517;52.422;10.782;2023-07-13T05:26:14;7.40;;;4.22;;
39846;SDS011;25517;52.422;10.782;2023-07-13T05:28:39;8.10;;;3.40;;
39846;SDS011;25517;52.422;10.782;2023-07-13T05:31:06;7.38;;;2.88;;
39846;SDS011;25517;52.422;10.782;2023-07-13T05:33:33;5.35;;;3.05;;
39846;SDS011;25517;52.422;10.782;2023-07-13T05:35:59;6.82;;;3.70;;
39846;SDS011;25517;52.422;10.782;2023-07-13T05:38:25;9.63;;;3.10;;
39846;SDS011;25517;52.422;10.782;2023-07-13T05:40:53;8.43;;;3.63;;
39846;SDS011;25517;52.422;10.782;2023-07-13T05:43:20;4.55;;;2.75;;
39846;SDS011;25517;52.422;10.782;2023-07-13T05:45:46;13.77;;;3.28;;
39846;SDS011;25517;52.422;10.782;2023-07-13T05:48:11;6.78;;;2.40;;
39846;SDS011;25517;52.422;10.782;2023-07-13T05:50:37;5.85;;;2.85;;
39846;SDS011;25517;52.422;10.782;2023-07-13T05:53:02;5.07;;;2.60;;
39846;SDS011;25517;52.422;10.782;2023-07-13T05:55:28;5.72;;;2.50;;
39846;SDS011;25517;52.422;10.782;2023-07-13T05:57:54;7.55;;;2.72;;
39846;SDS011;25517;52.422;10.782;2023-07-13T06:00:19;5.68;;;2.35;;
39846;SDS011;25517;52.422;10.782;2023-07-13T06:02:45;12.45;;;3.20;;
39846;SDS011;25517;52.422;10.782;2023-07-13T06:05:10;5.82;;;2.72;;
39846;SDS011;25517;52.422;10.782;2023-07-13T06:07:37;7.35;;;2.53;;
39846;SDS011;25517;52.422;10.782;2023-07-13T06:10:03;7.03;;;3.33;;
39846;SDS011;25517;52.422;10.782;2023-07-13T06:12:29;11.60;;;2.88;;
39846;SDS011;25517;52.422;10.782;2023-07-13T06:14:54;6.88;;;2.65;;
39846;SDS011;25517;52.422;10.782;2023-07-13T06:17:20;7.72;;;2.97;;
39846;SDS011;25517;52.422;10.782;2023-07-13T06:19:45;4.82;;;2.65;;
39846;SDS011;25517;52.422;10.782;2023-07-13T06:22:11;8.85;;;2.60;;
39846;SDS011;25517;52.422;10.782;2023-07-13T06:24:36;6.00;;;2.17;;
39846;SDS011;25517;52.422;10.782;2023-07-13T06:27:02;5.40;;;2.45;;
39846;SDS011;25517;52.422;10.782;2023-07-13T06:29:28;5.57;;;2.00;;
39846;SDS011;25517;52.422;10.782;2023-07-13T06:31:53;16.00;;;3.38;;
39846;SDS011;25517;52.422;10.782;2023-07-13T06:34:19;10.25;;;2.72;;
39846;SDS011;25517;52.422;10.782;2023-07-13T06:36:44;6.50;;;2.80;;
39846;SDS011;25517;52.422;10.782;2023-07-13T06:39:11;8.38;;;2.28;;
39846;SDS011;25517;52.422;10.782;2023-07-13T06:41:36;8.13;;;2.70;;
39846;SDS011;25517;52.422;10.782;2023-07-13T06:44:03;13.05;;;3.03;;
39846;SDS011;25517;52.422;10.782;2023-07-13T06:46:29;10.35;;;3.20;;
39846;SDS011;25517;52.422;10.782;2023-07-13T06:48:55;7.72;;;2.58;;
39846;SDS011;25517;52.422;10.782;2023-07-13T06:51:21;5.95;;;2.78;;
39846;SDS011;25517;52.422;10.782;2023-07-13T06:53:46;8.48;;;2.65;;
39846;SDS011;25517;52.422;10.782;2023-07-13T06:56:12;12.52;;;3.13;;
39846;SDS011;25517;52.422;10.782;2023-07-13T06:58:38;9.48;;;2.80;;
39846;SDS011;25517;52.422;10.782;2023-07-13T07:01:04;10.55;;;2.60;;
39846;SDS011;25517;52.422;10.782;2023-07-13T07:03:30;7.45;;;2.75;;
39846;SDS011;25517;52.422;10.782;2023-07-13T07:06:06;5.55;;;2.10;;
39846;SDS011;25517;52.422;10.782;2023-07-13T07:08:43;11.40;;;3.40;;
39846;SDS011;25517;52.422;10.782;2023-07-13T07:11:13;8.75;;;2.47;;
39846;SDS011;25517;52.422;10.782;2023-07-13T07:13:41;12.75;;;2.97;;
39846;SDS011;25517;52.422;10.782;2023-07-13T07:16:07;9.15;;;2.75;;
39846;SDS011;25517;52.422;10.782;2023-07-13T07:18:33;9.50;;;3.20;;
39846;SDS011;25517;52.422;10.782;2023-07-13T07:20:59;10.27;;;2.90;;
39846;SDS011;25517;52.422;10.782;2023-07-13T07:23:25;8.48;;;2.60;;
39846;SDS011;25517;52.422;10.782;2023-07-13T07:25:51;11.85;;;2.58;;
39846;SDS011;25517;52.422;10.782;2023-07-13T07:28:17;6.72;;;2.25;;
39846;SDS011;25517;52.422;10.782;2023-07-13T07:30:45;9.82;;;2.42;;
39846;SDS011;25517;52.422;10.782;2023-07-13T07:33:12;8.52;;;2.85;;
39846;SDS011;25517;52.422;10.782;2023-07-13T07:35:38;7.22;;;2.70;;
39846;SDS011;25517;52.422;10.782;2023-07-13T07:38:03;10.57;;;3.08;;
39846;SDS011;25517;52.422;10.782;2023-07-13T07:40:29;11.57;;;2.67;;
39846;SDS011;25517;52.422;10.782;2023-07-13T07:42:56;9.95;;;3.72;;
39846;SDS011;25517;52.422;10.782;2023-07-13T07:45:21;10.57;;;2.88;;
39846;SDS011;25517;52.422;10.782;2023-07-13T07:47:47;9.00;;;3.47;;
39846;SDS011;25517;52.422;10.782;2023-07-13T07:50:13;9.23;;;3.35;;
39846;SDS011;25517;52.422;10.782;2023-07-13T07:52:39;13.15;;;3.40;;
39846;SDS011;25517;52.422;10.782;2023-07-13T07:55:06;7.60;;;2.70;;
39846;SDS011;25517;52.422;10.782;2023-07-13T07:57:32;10.60;;;3.30;;
39846;SDS011;25517;52.422;10.782;2023-07-13T07:59:58;6.53;;;2.83;;
39846;SDS011;25517;52.422;10.782;2023-07-13T08:02:24;14.40;;;3.55;;
39846;SDS011;25517;52.422;10.782;2023-07-13T08:04:50;8.45;;;3.38;;
39846;SDS011;25517;52.422;10.782;2023-07-13T08:07:16;6.22;;;3.28;;
39846;SDS011;25517;52.422;10.782;2023-07-13T08:09:42;9.38;;;3.45;;
39846;SDS011;25517;52.422;10.782;2023-07-13T08:12:07;14.23;;;4.05;;
39846;SDS011;25517;52.422;10.782;2023-07-13T08:14:33;13.23;;;4.20;;
39846;SDS011;25517;52.422;10.782;2023-07-13T08:16:58;9.07;;;3.13;;
39846;SDS011;25517;52.422;10.782;2023-07-13T08:19:24;9.65;;;2.42;;
39846;SDS011;25517;52.422;10.782;2023-07-13T08:21:49;6.82;;;3.45;;
39846;SDS011;25517;52.422;10.782;2023-07-13T08:24:15;6.50;;;2.50;;
39846;SDS011;25517;52.422;10.782;2023-07-13T08:26:43;8.07;;;2.40;;
39846;SDS011;25517;52.422;10.782;2023-07-13T08:29:09;5.28;;;1.85;;
39846;SDS011;25517;52.422;10.782;2023-07-13T08:31:34;6.70;;;2.25;;
39846;SDS011;25517;52.422;10.782;2023-07-13T08:34:00;8.07;;;3.03;;
39846;SDS011;25517;52.422;10.782;2023-07-13T08:36:26;5.65;;;1.67;;
39846;SDS011;25517;52.422;10.782;2023-07-13T08:38:52;4.57;;;1.50;;
39846;SDS011;25517;52.422;10.782;2023-07-13T08:41:18;6.32;;;2.15;;
39846;SDS011;25517;52.422;10.782;2023-07-13T08:43:45;7.40;;;1.80;;
39846;SDS011;25517;52.422;10.782;2023-07-13T08:46:26;5.97;;;2.25;;
39846;SDS011;25517;52.422;10.782;2023-07-13T08:49:01;2.65;;;1.30;;
39846;SDS011;25517;52.422;10.782;2023-07-13T08:51:48;3.97;;;1.35;;
39846;SDS011;25517;52.422;10.782;2023-07-13T08:54:32;2.83;;;1.52;;
39846;SDS011;25517;52.422;10.782;2023-07-13T08:57:03;6.00;;;1.60;;
39846;SDS011;25517;52.422;10.782;2023-07-13T08:59:46;4.88;;;2.05;;
39846;SDS011;25517;52.422;10.782;2023-07-13T09:07:58;5.35;;;2.10;;
39846;SDS011;25517;52.422;10.782;2023-07-13T09:10:48;5.85;;;1.65;;
39846;SDS011;25517;52.422;10.782;2023-07-13T09:15:49;6.22;;;2.00;;
39846;SDS011;25517;52.422;10.782;2023-07-13T09:18:49;5.97;;;2.00;;
39846;SDS011;25517;52.422;10.782;2023-07-13T09:21:12;4.32;;;1.73;;
39846;SDS011;25517;52.422;10.782;2023-07-13T09:23:41;5.05;;;2.10;;
39846;SDS011;25517;52.422;10.782;2023-07-13T09:26:18;6.85;;;2.13;;
39846;SDS011;25517;52.422;10.782;2023-07-13T09:29:09;5.18;;;2.05;;
39846;SDS011;25517;52.422;10.782;2023-07-13T09:31:42;4.90;;;1.92;;
39846;SDS011;25517;52.422;10.782;2023-07-13T09:34:12;6.50;;;2.13;;
39846;SDS011;25517;52.422;10.782;2023-07-13T09:36:38;3.88;;;1.95;;
39846;SDS011;25517;52.422;10.782;2023-07-13T09:41:36;3.47;;;1.50;;
39846;SDS011;25517;52.422;10.782;2023-07-13T09:44:27;6.30;;;1.98;;
39846;SDS011;25517;52.422;10.782;2023-07-13T09:46:55;7.57;;;1.92;;
39846;SDS011;25517;52.422;10.782;2023-07-13T09:49:29;6.28;;;1.92;;
39846;SDS011;25517;52.422;10.782;2023-07-13T09:51:59;15.77;;;2.65;;
39846;SDS011;25517;52.422;10.782;2023-07-13T09:54:32;8.68;;;2.08;;
39846;SDS011;25517;52.422;10.782;2023-07-13T09:56:59;4.32;;;1.70;;
39846;SDS011;25517;52.422;10.782;2023-07-13T09:59:30;7.13;;;2.00;;
39846;SDS011;25517;52.422;10.782;2023-07-13T10:02:22;4.55;;;1.92;;
39846;SDS011;25517;52.422;10.782;2023-07-13T10:04:53;4.22;;;1.80;;
39846;SDS011;25517;52.422;10.782;2023-07-13T10:07:23;5.82;;;1.80;;
39846;SDS011;25517;52.422;10.782;2023-07-13T10:09:53;6.93;;;1.83;;
39846;SDS011;25517;52.422;10.782;2023-07-13T10:14:45;4.57;;;2.00;;
39846;SDS011;25517;52.422;10.782;2023-07-13T10:17:13;1.95;;;1.52;;
39846;SDS011;25517;52.422;10.782;2023-07-13T10:19:39;2.88;;;1.52;;
39846;SDS011;25517;52.422;10.782;2023-07-13T10:22:15;3.70;;;1.63;;
39846;SDS011;25517;52.422;10.782;2023-07-13T10:24:46;4.35;;;1.48;;
39846;SDS011;25517;52.422;10.782;2023-07-13T10:27:45;7.07;;;2.00;;
39846;SDS011;25517;52.422;10.782;2023-07-13T10:30:12;9.00;;;1.85;;
39846;SDS011;25517;52.422;10.782;2023-07-13T10:32:42;6.47;;;1.40;;
39846;SDS011;25517;52.422;10.782;2023-07-13T10:35:10;4.63;;;1.83;;
39846;SDS011;25517;52.422;10.782;2023-07-13T10:37:43;5.35;;;1.65;;
39846;SDS011;25517;52.422;10.782;2023-07-13T10:40:14;4.03;;;1.67;;
39846;SDS011;25517;52.422;10.782;2023-07-13T10:42:46;5.05;;;1.67;;
39846;SDS011;25517;52.422;10.782;2023-07-13T10:47:42;5.68;;;1.70;;
39846;SDS011;25517;52.422;10.782;2023-07-13T10:50:11;5.07;;;1.67;;
39846;SDS011;25517;52.422;10.782;2023-07-13T10:52:47;5.97;;;2.00;;
39846;SDS011;25517;52.422;10.782;2023-07-13T10:55:35;3.53;;;1.58;;
39846;SDS011;25517;52.422;10.782;2023-07-13T10:58:02;5.63;;;1.70;;
39846;SDS011;25517;52.422;10.782;2023-07-13T11:00:57;5.53;;;1.80;;
39846;SDS011;25517;52.422;10.782;2023-07-13T11:03:37;5.97;;;1.65;;
39846;SDS011;25517;52.422;10.782;2023-07-13T11:08:55;4.50;;;1.60;;
39846;SDS011;25517;52.422;10.782;2023-07-13T11:18:45;5.53;;;2.07;;
39846;SDS011;25517;52.422;10.782;2023-07-13T11:23:43;4.90;;;1.55;;
39846;SDS011;25517;52.422;10.782;2023-07-13T11:31:41;5.10;;;1.40;;
39846;SDS011;25517;52.422;10.782;2023-07-13T11:34:14;4.53;;;1.60;;
39846;SDS011;25517;52.422;10.782;2023-07-13T11:36:42;2.85;;;1.40;;
39846;SDS011;25517;52.422;10.782;2023-07-13T11:39:16;6.18;;;1.98;;
39846;SDS011;25517;52.422;10.782;2023-07-13T11:41:50;5.68;;;1.75;;
39846;SDS011;25517;52.422;10.782;2023-07-13T11:44:23;5.22;;;1.75;;
39846;SDS011;25517;52.422;10.782;2023-07-13T11:46:53;6.10;;;1.90;;
39846;SDS011;25517;52.422;10.782;2023-07-13T11:49:21;4.63;;;1.50;;
39846;SDS011;25517;52.422;10.782;2023-07-13T11:51:49;9.90;;;1.80;;
39846;SDS011;25517;52.422;10.782;2023-07-13T11:56:48;6.00;;;1.38;;
39846;SDS011;25517;52.422;10.782;2023-07-13T11:59:14;5.55;;;1.92;;
39846;SDS011;25517;52.422;10.782;2023-07-13T12:01:44;4.47;;;1.85;;
39846;SDS011;25517;52.422;10.782;2023-07-13T12:04:27;2.97;;;1.63;;
39846;SDS011;25517;52.422;10.782;2023-07-13T12:06:57;5.32;;;1.40;;
39846;SDS011;25517;52.422;10.782;2023-07-13T12:09:28;4.78;;;1.70;;
39846;SDS011;25517;52.422;10.782;2023-07-13T12:11:55;4.78;;;1.80;;
39846;SDS011;25517;52.422;10.782;2023-07-13T12:14:23;3.15;;;1.77;;
39846;SDS011;25517;52.422;10.782;2023-07-13T12:16:51;4.25;;;1.73;;
39846;SDS011;25517;52.422;10.782;2023-07-13T12:19:19;5.97;;;1.95;;
39846;SDS011;25517;52.422;10.782;2023-07-13T12:21:52;6.95;;;2.13;;
39846;SDS011;25517;52.422;10.782;2023-07-13T12:24:21;7.65;;;1.50;;
39846;SDS011;25517;52.422;10.782;2023-07-13T12:26:52;3.75;;;1.40;;
39846;SDS011;25517;52.422;10.782;2023-07-13T12:29:20;2.85;;;1.48;;
39846;SDS011;25517;52.422;10.782;2023-07-13T12:31:47;5.90;;;1.60;;
39846;SDS011;25517;52.422;10.782;2023-07-13T12:34:17;4.60;;;1.70;;
39846;SDS011;25517;52.422;10.782;2023-07-13T12:39:33;5.95;;;1.55;;
39846;SDS011;25517;52.422;10.782;2023-07-13T12:45:18;6.40;;;1.50;;
39846;SDS011;25517;52.422;10.782;2023-07-13T12:47:50;6.25;;;2.10;;
39846;SDS011;25517;52.422;10.782;2023-07-13T12:50:20;5.70;;;1.90;;
39846;SDS011;25517;52.422;10.782;2023-07-13T12:52:55;3.28;;;1.77;;
39846;SDS011;25517;52.422;10.782;2023-07-13T12:55:26;5.65;;;1.77;;
39846;SDS011;25517;52.422;10.782;2023-07-13T12:57:54;2.60;;;1.50;;
39846;SDS011;25517;52.422;10.782;2023-07-13T13:03:04;3.30;;;1.40;;
39846;SDS011;25517;52.422;10.782;2023-07-13T13:05:32;7.50;;;1.60;;
39846;SDS011;25517;52.422;10.782;2023-07-13T13:07:58;5.45;;;2.17;;
39846;SDS011;25517;52.422;10.782;2023-07-13T13:10:24;4.63;;;1.75;;
39846;SDS011;25517;52.422;10.782;2023-07-13T13:12:51;5.32;;;2.15;;
39846;SDS011;25517;52.422;10.782;2023-07-13T13:15:17;3.53;;;1.80;;
39846;SDS011;25517;52.422;10.782;2023-07-13T13:17:43;4.03;;;1.85;;
39846;SDS011;25517;52.422;10.782;2023-07-13T13:20:20;4.55;;;2.00;;
39846;SDS011;25517;52.422;10.782;2023-07-13T13:22:47;5.88;;;2.22;;
39846;SDS011;25517;52.422;10.782;2023-07-13T13:25:13;4.30;;;2.00;;
39846;SDS011;25517;52.422;10.782;2023-07-13T13:27:43;3.67;;;2.03;;
39846;SDS011;25517;52.422;10.782;2023-07-13T13:30:13;3.45;;;1.95;;
39846;SDS011;25517;52.422;10.782;2023-07-13T13:32:41;4.50;;;1.88;;
39846;SDS011;25517;52.422;10.782;2023-07-13T13:35:14;4.35;;;1.75;;
39846;SDS011;25517;52.422;10.782;2023-07-13T13:37:45;3.47;;;2.03;;
39846;SDS011;25517;52.422;10.782;2023-07-13T13:40:16;5.03;;;1.98;;
39846;SDS011;25517;52.422;10.782;2023-07-13T13:42:47;4.07;;;2.00;;
39846;SDS011;25517;52.422;10.782;2023-07-13T13:45:13;7.85;;;2.05;;
39846;SDS011;25517;52.422;10.782;2023-07-13T13:47:41;2.65;;;1.80;;
39846;SDS011;25517;52.422;10.782;2023-07-13T13:50:13;3.35;;;2.05;;
39846;SDS011;25517;52.422;10.782;2023-07-13T13:52:43;4.40;;;1.80;;
39846;SDS011;25517;52.422;10.782;2023-07-13T13:55:13;3.40;;;1.60;;
39846;SDS011;25517;52.422;10.782;2023-07-13T13:57:40;5.57;;;1.85;;
39846;SDS011;25517;52.422;10.782;2023-07-13T14:00:06;2.85;;;1.80;;
39846;SDS011;25517;52.422;10.782;2023-07-13T14:02:34;2.65;;;2.05;;
39846;SDS011;25517;52.422;10.782;2023-07-13T14:05:01;2.88;;;1.83;;
39846;SDS011;25517;52.422;10.782;2023-07-13T14:07:28;4.20;;;2.08;;
39846;SDS011;25517;52.422;10.782;2023-07-13T14:09:58;5.72;;;1.98;;
39846;SDS011;25517;52.422;10.782;2023-07-13T14:12:25;3.38;;;1.98;;
39846;SDS011;25517;52.422;10.782;2023-07-13T14:14:54;3.03;;;1.98;;
39846;SDS011;25517;52.422;10.782;2023-07-13T14:17:22;4.30;;;2.00;;
39846;SDS011;25517;52.422;10.782;2023-07-13T14:19:51;4.43;;;1.88;;
39846;SDS011;25517;52.422;10.782;2023-07-13T14:22:22;3.00;;;1.77;;
39846;SDS011;25517;52.422;10.782;2023-07-13T14:24:53;2.78;;;2.13;;
39846;SDS011;25517;52.422;10.782;2023-07-13T14:27:20;12.63;;;2.13;;
39846;SDS011;25517;52.422;10.782;2023-07-13T14:29:46;7.65;;;2.15;;
39846;SDS011;25517;52.422;10.782;2023-07-13T14:32:11;4.22;;;1.83;;
39846;SDS011;25517;52.422;10.782;2023-07-13T14:34:37;5.43;;;1.55;;
39846;SDS011;25517;52.422;10.782;2023-07-13T14:37:03;3.22;;;1.60;;
39846;SDS011;25517;52.422;10.782;2023-07-13T14:39:31;8.25;;;2.10;;
39846;SDS011;25517;52.422;10.782;2023-07-13T14:41:57;4.07;;;1.88;;
39846;SDS011;25517;52.422;10.782;2023-07-13T14:44:29;3.53;;;2.25;;
39846;SDS011;25517;52.422;10.782;2023-07-13T14:46:57;7.30;;;2.38;;
39846;SDS011;25517;52.422;10.782;2023-07-13T14:49:25;10.45;;;2.38;;
39846;SDS011;25517;52.422;10.782;2023-07-13T14:52:12;5.90;;;2.75;;
39846;SDS011;25517;52.422;10.782;2023-07-13T14:54:41;5.43;;;2.53;;
39846;SDS011;25517;52.422;10.782;2023-07-13T14:57:09;8.38;;;3.17;;
39846;SDS011;25517;52.422;10.782;2023-07-13T14:59:36;4.03;;;2.60;;
39846;SDS011;25517;52.422;10.782;2023-07-13T15:02:01;4.47;;;2.58;;
39846;SDS011;25517;52.422;10.782;2023-07-13T15:04:27;4.60;;;3.00;;
39846;SDS011;25517;52.422;10.782;2023-07-13T15:06:59;4.32;;;2.63;;
39846;SDS011;25517;52.422;10.782;2023-07-13T15:09:27;8.18;;;2.65;;
39846;SDS011;25517;52.422;10.782;2023-07-13T15:11:56;4.47;;;2.25;;
39846;SDS011;25517;52.422;10.782;2023-07-13T15:14:23;4.80;;;2.42;;
39846;SDS011;25517;52.422;10.782;2023-07-13T15:16:53;5.35;;;2.28;;
39846;SDS011;25517;52.422;10.782;2023-07-13T15:19:20;4.88;;;2.50;;
39846;SDS011;25517;52.422;10.782;2023-07-13T15:21:46;3.95;;;2.40;;
39846;SDS011;25517;52.422;10.782;2023-07-13T15:24:13;2.80;;;2.20;;
39846;SDS011;25517;52.422;10.782;2023-07-13T15:26:39;4.97;;;2.65;;